createdAt,value
2019-04-10T00:01:09.657Z,101156.05
2019-04-10T00:03:43.656Z,101159.35
2019-04-10T00:06:17.069Z,101160.56
2019-04-10T00:08:47.026Z,101160.86
2019-04-10T00:11:18.586Z,101160.66
2019-04-10T00:13:49.846Z,101163.97
2019-04-10T00:16:22.323Z,101163.87
2019-04-10T00:18:53.999Z,101164.06
2019-04-10T00:21:26.182Z,101167.23
2019-04-10T00:23:57.686Z,101165.30
2019-04-10T00:26:29.721Z,101165.49
2019-04-10T00:29:01.017Z,101167.42
2019-04-10T00:31:32.190Z,101166.80
2019-04-10T00:34:03.439Z,101177.66
2019-04-10T00:36:35.222Z,101171.83
2019-04-10T00:39:08.635Z,101168.48
2019-04-10T00:41:40.676Z,101168.78
2019-04-10T00:44:11.827Z,101164.75
2019-04-10T00:46:43.279Z,101173.81
2019-04-10T00:49:15.361Z,101165.63
2019-04-10T00:51:47.800Z,101166.84
2019-04-10T00:54:20.005Z,101168.43
2019-04-10T00:56:51.256Z,101171.34
2019-04-10T00:59:22.446Z,101166.78
2019-04-10T01:01:54.278Z,101162.27
2019-04-10T01:04:26.636Z,101165.66
2019-04-10T01:06:57.806Z,101162.95
2019-04-10T01:09:29.182Z,101159.32
2019-04-10T01:12:00.561Z,101163.95
2019-04-10T01:14:31.863Z,101161.10
2019-04-10T01:17:04.013Z,101161.72
2019-04-10T01:19:36.281Z,101157.27
2019-04-10T01:22:08.612Z,101157.55
2019-04-10T01:24:41.744Z,101156.64
2019-04-10T01:27:13.892Z,101153.72
2019-04-10T01:29:46.041Z,101154.82
2019-04-10T01:32:17.463Z,101157.44
2019-04-10T01:34:49.633Z,101152.88
2019-04-10T01:37:20.770Z,101150.55
2019-04-10T01:39:52.801Z,101153.56
2019-04-10T01:42:24.872Z,101149.44
2019-04-10T01:44:56.045Z,101156.78
2019-04-10T01:47:27.202Z,101154.56
2019-04-10T01:49:58.498Z,101156.26
2019-04-10T01:52:29.733Z,101165.69
2019-04-10T01:55:03.168Z,101158.95
2019-04-10T01:57:34.586Z,101164.47
2019-04-10T02:00:06.800Z,101156.91
2019-04-10T02:02:46.242Z,101155.11
2019-04-10T02:05:18.604Z,101163.23
2019-04-10T02:08:01.328Z,101163.63
2019-04-10T02:10:23.776Z,101159.88
2019-04-10T02:12:54.987Z,101161.09
2019-04-10T02:15:26.234Z,101166.21
2019-04-10T02:17:57.378Z,101166.50
2019-04-10T02:20:29.156Z,101164.95
2019-04-10T02:23:00.365Z,101160.43
2019-04-10T02:25:32.624Z,101158.09
2019-04-10T02:28:04.863Z,101158.77
2019-04-10T02:30:37.291Z,101158.95
2019-04-10T02:33:10.551Z,101166.16
2019-04-10T02:35:43.452Z,101162.41
2019-04-10T02:38:32.767Z,101162.20
2019-04-10T02:40:47.732Z,101159.77
2019-04-10T02:43:19.056Z,101158.25
2019-04-10T02:45:51.149Z,101158.53
2019-04-10T02:48:23.450Z,101155.28
2019-04-10T02:50:55.515Z,101156.88
2019-04-10T02:53:27.659Z,101149.61
2019-04-10T02:56:00.442Z,101158.81
2019-04-10T02:58:32.282Z,101162.90
2019-04-10T03:01:03.675Z,101161.27
2019-04-10T03:03:36.098Z,101164.45
2019-04-10T03:06:09.127Z,101162.78
2019-04-10T03:08:54.907Z,101160.73
2019-04-10T03:11:14.523Z,101168.98
2019-04-10T03:13:47.261Z,101165.34
2019-04-10T03:16:19.441Z,101173.06
2019-04-10T03:18:52.881Z,101182.20
2019-04-10T03:21:25.038Z,101179.45
2019-04-10T03:23:56.258Z,101175.14
2019-04-10T03:26:27.913Z,101172.92
2019-04-10T03:28:59.720Z,101167.70
2019-04-10T03:31:32.469Z,101169.92
2019-04-10T03:34:15.600Z,101166.81
2019-04-10T03:36:45.528Z,101176.84
2019-04-10T03:39:17.433Z,101171.12
2019-04-10T03:41:48.648Z,101169.81
2019-04-10T03:44:20.747Z,101173.34
2019-04-10T03:46:52.802Z,101170.73
2019-04-10T03:49:25.517Z,101164.70
2019-04-10T03:51:56.792Z,101168.73
2019-04-10T03:54:28.133Z,101164.53
2019-04-10T03:57:00.394Z,101162.45
2019-04-10T03:59:32.659Z,101162.56
2019-04-10T04:02:03.910Z,101163.98
2019-04-10T04:04:35.142Z,101161.26
2019-04-10T04:07:07.076Z,101162.84
2019-04-10T04:09:38.291Z,101161.70
2019-04-10T04:12:10.477Z,101164.98
2019-04-10T04:14:41.740Z,101165.80
2019-04-10T04:17:13.610Z,101163.46
2019-04-10T04:19:44.898Z,101162.44
2019-04-10T04:22:16.710Z,101170.92
2019-04-10T04:24:48.213Z,101170.81
2019-04-10T04:27:20.031Z,101169.52
2019-04-10T04:29:51.943Z,101170.60
2019-04-10T04:32:23.812Z,101173.20
2019-04-10T04:34:56.272Z,101178.81
2019-04-10T04:37:28.046Z,101180.50
2019-04-10T04:40:00.509Z,101179.09
2019-04-10T04:42:32.920Z,101184.41
2019-04-10T04:45:05.183Z,101187.17
2019-04-10T04:47:36.332Z,101192.78
2019-04-10T04:50:07.815Z,101188.86
2019-04-10T04:52:39.166Z,101195.11
2019-04-10T04:55:10.389Z,101198.63
2019-04-10T04:57:42.292Z,101198.05
2019-04-10T05:00:13.651Z,101199.08
2019-04-10T05:02:44.843Z,101202.11
2019-04-10T05:05:16.442Z,101205.60
2019-04-10T05:07:58.411Z,101209.94
2019-04-10T05:10:20.895Z,101213.04
2019-04-10T05:12:52.113Z,101218.64
2019-04-10T05:15:23.284Z,101227.50
2019-04-10T05:17:55.557Z,101229.03
2019-04-10T05:20:39.299Z,101233.70
2019-04-10T05:22:59.990Z,101226.89
2019-04-10T05:25:31.597Z,101234.34
2019-04-10T05:28:03.632Z,101237.06
2019-04-10T05:30:35.687Z,101242.39
2019-04-10T05:33:06.964Z,101245.80
2019-04-10T05:35:38.144Z,101247.39
2019-04-10T05:38:10.207Z,101249.08
2019-04-10T05:40:42.206Z,101244.78
2019-04-10T05:43:13.534Z,101253.91
2019-04-10T05:45:44.738Z,101250.91
2019-04-10T05:48:15.984Z,101251.80
2019-04-10T05:50:53.975Z,101263.80
2019-04-10T05:53:20.429Z,101260.37
2019-04-10T05:55:51.731Z,101260.91
2019-04-10T05:58:23.765Z,101261.41
2019-04-10T06:00:56.857Z,101260.86
2019-04-10T06:03:28.277Z,101268.91
2019-04-10T06:06:01.013Z,101263.94
2019-04-10T06:08:33.322Z,101269.00
2019-04-10T06:11:04.613Z,101273.87
2019-04-10T06:13:36.853Z,101270.48
2019-04-10T06:16:08.008Z,101269.19
2019-04-10T06:18:39.593Z,101267.36
2019-04-10T06:21:10.713Z,101266.20
2019-04-10T06:23:42.042Z,101268.08
2019-04-10T06:26:15.569Z,101257.16
2019-04-10T06:28:46.497Z,101261.64
2019-04-10T06:31:18.680Z,101255.74
2019-04-10T06:33:50.586Z,101256.34
2019-04-10T06:36:21.852Z,101260.89
2019-04-10T06:38:53.147Z,101261.92
2019-04-10T06:41:24.413Z,101261.28
2019-04-10T06:43:55.705Z,101257.47
2019-04-10T06:46:26.991Z,101261.53
2019-04-10T06:48:58.475Z,101266.86
2019-04-10T06:51:29.679Z,101268.06
2019-04-10T06:54:06.999Z,101266.02
2019-04-10T06:56:33.762Z,101259.88
2019-04-10T06:59:05.072Z,101267.92
2019-04-10T07:01:45.799Z,101266.16
2019-04-10T07:04:09.952Z,101269.22
2019-04-10T07:06:53.943Z,101275.58
2019-04-10T07:09:21.438Z,101272.31
2019-04-10T07:11:58.354Z,101272.76
2019-04-10T07:14:28.721Z,101278.83
2019-04-10T07:17:05.043Z,101277.15
2019-04-10T07:19:33.103Z,101271.94
2019-04-10T07:22:09.833Z,101276.30
2019-04-10T07:24:41.185Z,101279.12
2019-04-10T07:27:11.848Z,101279.46
2019-04-10T07:29:43.094Z,101278.00
2019-04-10T07:32:15.003Z,101277.81
2019-04-10T07:34:46.729Z,101282.95
2019-04-10T07:37:21.331Z,101281.78
2019-04-10T07:39:50.971Z,101284.31
2019-04-10T07:42:29.385Z,101282.42
2019-04-10T07:44:56.486Z,101285.05
2019-04-10T07:47:29.168Z,101293.73
2019-04-10T07:50:02.118Z,101293.92
2019-04-10T07:52:33.363Z,101296.97
2019-04-10T07:55:06.449Z,101295.96
2019-04-10T07:57:38.494Z,101298.48
2019-04-10T08:00:11.739Z,101298.72
2019-04-10T08:02:42.904Z,101299.02
2019-04-10T08:05:14.449Z,101299.25
2019-04-10T08:07:45.755Z,101293.28
2019-04-10T08:10:17.904Z,101301.17
2019-04-10T08:12:53.135Z,101303.80
2019-04-10T08:15:23.452Z,101300.98
2019-04-10T08:17:54.639Z,101298.69
2019-04-10T08:20:26.175Z,101299.89
2019-04-10T08:22:57.436Z,101301.10
2019-04-10T08:25:29.663Z,101300.90
2019-04-10T08:28:00.933Z,101308.07
2019-04-10T08:30:34.183Z,101306.17
2019-04-10T08:33:06.169Z,101310.59
2019-04-10T08:35:37.870Z,101307.67
2019-04-10T08:38:09.771Z,101310.19
2019-04-10T08:40:42.235Z,101312.30
2019-04-10T08:43:13.810Z,101311.41
2019-04-10T08:45:50.041Z,101309.59
2019-04-10T08:48:18.066Z,101307.78
2019-04-10T08:50:50.383Z,101311.70
2019-04-10T08:53:22.206Z,101307.65
2019-04-10T08:55:54.549Z,101312.38
2019-04-10T08:58:27.082Z,101313.19
2019-04-10T09:01:00.676Z,101317.52
2019-04-10T09:03:32.987Z,101309.76
2019-04-10T09:06:05.200Z,101318.00
2019-04-10T09:08:37.184Z,101318.30
2019-04-10T09:11:09.111Z,101314.46
2019-04-10T09:13:40.945Z,101313.33
2019-04-10T09:16:12.338Z,101311.45
2019-04-10T09:18:43.717Z,101309.70
2019-04-10T09:21:15.340Z,101308.78
2019-04-10T09:23:52.784Z,101301.39
2019-04-10T09:26:20.432Z,101298.42
2019-04-10T09:28:52.861Z,101297.01
2019-04-10T09:31:24.179Z,101299.50
2019-04-10T09:33:55.824Z,101296.75
2019-04-10T09:36:27.160Z,101294.50
2019-04-10T09:38:59.083Z,101299.31
2019-04-10T09:41:32.012Z,101295.63
2019-04-10T09:44:04.466Z,101288.53
2019-04-10T09:46:35.841Z,101288.91
2019-04-10T09:49:07.187Z,101292.31
2019-04-10T09:51:38.457Z,101291.77
2019-04-10T09:54:09.945Z,101289.91
2019-04-10T09:56:41.963Z,101288.55
2019-04-10T09:59:13.876Z,101288.43
2019-04-10T10:01:46.412Z,101285.11
2019-04-10T10:04:17.699Z,101284.89
2019-04-10T10:06:49.365Z,101277.21
2019-04-10T10:09:21.540Z,101273.23
2019-04-10T10:11:53.458Z,101276.53
2019-04-10T10:14:26.549Z,101269.28
2019-04-10T10:16:58.086Z,101276.38
2019-04-10T10:19:30.095Z,101272.03
2019-04-10T10:22:03.579Z,101278.41
2019-04-10T10:24:34.993Z,101275.78
2019-04-10T10:27:07.310Z,101268.48
2019-04-10T10:29:38.864Z,101266.36
2019-04-10T10:32:10.953Z,101277.23
2019-04-10T10:34:42.774Z,101283.84
2019-04-10T10:37:15.202Z,101275.62
2019-04-10T10:39:47.277Z,101270.43
2019-04-10T10:42:19.303Z,101266.91
2019-04-10T10:44:50.747Z,101272.00
2019-04-10T10:47:22.272Z,101275.78
2019-04-10T10:49:53.600Z,101271.03
2019-04-10T10:52:25.737Z,101272.58
2019-04-10T10:54:59.062Z,101275.88
2019-04-10T10:57:31.139Z,101278.34
2019-04-10T11:00:02.450Z,101274.89
2019-04-10T11:02:33.844Z,101272.73
2019-04-10T11:05:07.087Z,101268.96
2019-04-10T11:07:38.872Z,101269.88
2019-04-10T11:10:12.479Z,101270.29
2019-04-10T11:12:44.176Z,101258.81
2019-04-10T11:15:16.199Z,101259.40
2019-04-10T11:17:47.502Z,101259.11
2019-04-10T11:20:19.897Z,101252.98
2019-04-10T11:22:51.349Z,101251.41
2019-04-10T11:25:22.492Z,101255.03
2019-04-10T11:27:54.051Z,101254.47
2019-04-10T11:30:26.839Z,101243.06
2019-04-10T11:32:58.311Z,101238.72
2019-04-10T11:35:31.732Z,101244.45
2019-04-10T11:38:05.660Z,101246.49
2019-04-10T11:40:36.523Z,101237.97
2019-04-10T11:43:08.002Z,101243.25
2019-04-10T11:48:12.936Z,101243.83
2019-04-10T11:50:46.170Z,101245.73
2019-04-10T11:53:19.067Z,101251.72
2019-04-10T11:55:53.627Z,101246.44
2019-04-10T11:58:27.112Z,101244.06
2019-04-10T12:00:59.473Z,101242.03
2019-04-10T12:03:31.356Z,101253.38
2019-04-10T12:06:04.433Z,101250.30
2019-04-10T12:09:04.251Z,101248.09
2019-04-10T12:11:14.563Z,101251.38
2019-04-10T12:13:42.737Z,101247.21
2019-04-10T12:16:14.805Z,101255.50
2019-04-10T12:18:46.781Z,101254.61
2019-04-10T12:21:18.114Z,101249.59
2019-04-10T12:23:50.228Z,101248.97
2019-04-10T12:26:21.717Z,101258.72
2019-04-10T12:28:53.808Z,101251.76
2019-04-10T12:31:26.009Z,101258.36
2019-04-10T12:33:57.350Z,101254.59
2019-04-10T12:36:28.871Z,101253.59
2019-04-10T12:39:00.353Z,101242.97
2019-04-10T12:41:33.268Z,101231.23
2019-04-10T12:44:05.331Z,101247.77
2019-04-10T12:46:37.341Z,101236.73
2019-04-10T12:49:09.640Z,101240.48
2019-04-10T12:51:41.557Z,101240.02
2019-04-10T12:54:12.842Z,101253.94
2019-04-10T12:56:43.993Z,101257.07
2019-04-10T12:59:15.312Z,101254.89
2019-04-10T13:01:47.042Z,101251.96
2019-04-10T13:04:18.228Z,101257.16
2019-04-10T13:06:52.348Z,101251.48
2019-04-10T13:09:22.255Z,101253.34
2019-04-10T13:11:53.408Z,101254.66
2019-04-10T13:14:24.620Z,101241.92
2019-04-10T13:16:56.422Z,101240.39
2019-04-10T13:19:27.595Z,101228.80
2019-04-10T13:21:59.896Z,101216.18
2019-04-10T13:24:31.194Z,101207.72
2019-04-10T13:27:02.380Z,101200.63
2019-04-10T13:29:33.643Z,101196.19
2019-04-10T13:32:04.936Z,101196.13
2019-04-10T13:34:37.389Z,101197.48
2019-04-10T13:37:08.548Z,101195.15
2019-04-10T13:39:39.798Z,101194.08
2019-04-10T13:42:10.966Z,101200.58
2019-04-10T13:44:42.543Z,101209.45
2019-04-10T13:47:13.793Z,101208.46
2019-04-10T13:49:46.247Z,101213.09
2019-04-10T13:52:18.285Z,101219.18
2019-04-10T13:54:50.450Z,101222.88
2019-04-10T13:57:22.257Z,101220.57
2019-04-10T13:59:53.523Z,101220.94
2019-04-10T14:02:32.519Z,101208.44
2019-04-10T14:05:05.264Z,101206.93
2019-04-10T14:07:37.600Z,101202.50
2019-04-10T14:10:10.376Z,101196.08
2019-04-10T14:12:43.012Z,101202.58
2019-04-10T14:15:14.383Z,101194.94
2019-04-10T14:17:45.961Z,101203.45
2019-04-10T14:20:17.992Z,101198.56
2019-04-10T14:22:55.711Z,101205.73
2019-04-10T14:25:34.100Z,101200.90
2019-04-10T14:28:05.261Z,101205.36
2019-04-10T14:30:37.980Z,101207.03
2019-04-10T14:33:09.233Z,101206.63
2019-04-10T14:35:41.123Z,101223.48
2019-04-10T14:38:12.837Z,101222.84
2019-04-10T14:40:45.167Z,101229.83
2019-04-10T14:43:16.758Z,101233.47
2019-04-10T14:45:48.135Z,101236.87
2019-04-10T14:48:20.266Z,101234.52
2019-04-10T14:50:51.544Z,101228.96
2019-04-10T14:53:22.814Z,101231.17
2019-04-10T14:55:54.002Z,101228.53
2019-04-10T14:58:28.946Z,101231.66
2019-04-10T15:00:58.232Z,101227.06
2019-04-10T15:03:29.369Z,101223.33
2019-04-10T15:06:02.458Z,101215.86
2019-04-10T15:08:33.771Z,101209.26
2019-04-10T15:11:04.950Z,101221.26
2019-04-10T15:13:36.231Z,101225.06
2019-04-10T15:16:07.440Z,101229.55
2019-04-10T15:18:39.188Z,101236.04
2019-04-10T15:21:10.356Z,101235.95
2019-04-10T15:23:42.595Z,101232.95
2019-04-10T15:26:13.907Z,101244.69
2019-04-10T15:28:45.990Z,101252.25
2019-04-10T15:31:17.518Z,101259.86
2019-04-10T15:33:49.644Z,101252.78
2019-04-10T15:36:22.148Z,101247.78
2019-04-10T15:38:54.621Z,101240.94
2019-04-10T15:41:26.045Z,101249.15
2019-04-10T15:43:59.414Z,101256.27
2019-04-10T15:46:31.009Z,101251.70
2019-04-10T15:49:03.685Z,101249.47
2019-04-10T15:51:36.213Z,101249.94
2019-04-10T15:54:07.890Z,101253.24
2019-04-10T15:56:40.189Z,101249.45
2019-04-10T15:59:12.182Z,101257.66
2019-04-10T16:01:43.644Z,101253.63
2019-04-10T16:04:17.125Z,101253.72
2019-04-10T16:06:49.421Z,101258.34
2019-04-10T16:09:21.278Z,101251.70
2019-04-10T16:12:04.218Z,101253.70
2019-04-10T16:14:35.895Z,101260.16
2019-04-10T16:17:26.139Z,101246.95
2019-04-10T16:20:15.511Z,101244.41
2019-04-10T16:23:03.786Z,101258.88
2019-04-10T16:25:36.227Z,101259.28
2019-04-10T16:28:08.739Z,101255.16
2019-04-10T16:30:41.049Z,101254.69
2019-04-10T16:33:12.567Z,101258.58
2019-04-10T16:35:44.170Z,101260.03
2019-04-10T16:38:16.365Z,101260.79
2019-04-10T16:40:47.963Z,101265.34
2019-04-10T16:43:20.207Z,101262.53
2019-04-10T16:45:53.006Z,101266.60
2019-04-10T16:48:25.165Z,101271.39
2019-04-10T16:50:58.095Z,101271.75
2019-04-10T16:53:29.934Z,101273.84
2019-04-10T16:56:01.255Z,101272.48
2019-04-10T16:58:32.453Z,101280.25
2019-04-10T17:01:04.362Z,101280.23
2019-04-10T17:03:35.956Z,101278.05
2019-04-10T17:06:08.229Z,101281.58
2019-04-10T17:08:40.457Z,101276.20
2019-04-10T17:11:12.627Z,101282.58
2019-04-10T17:13:43.871Z,101288.30
2019-04-10T17:16:15.661Z,101293.27
2019-04-10T17:18:47.570Z,101295.38
2019-04-10T17:21:19.896Z,101296.89
2019-04-10T17:23:51.192Z,101307.43
2019-04-10T17:26:22.629Z,101301.61
2019-04-10T17:28:53.720Z,101303.06
2019-04-10T17:31:24.861Z,101308.43
2019-04-10T17:33:56.826Z,101305.56
2019-04-10T17:36:30.054Z,101313.38
2019-04-10T17:39:01.277Z,101316.36
2019-04-10T17:41:35.401Z,101313.66
2019-04-10T17:44:07.754Z,101320.75
2019-04-10T17:46:39.520Z,101321.00
2019-04-10T17:49:11.940Z,101319.91
2019-04-10T17:51:44.361Z,101331.69
2019-04-10T17:54:15.699Z,101327.41
2019-04-10T17:56:46.935Z,101328.77
2019-04-10T17:59:18.407Z,101334.17
2019-04-10T18:01:49.725Z,101337.52
2019-04-10T18:04:22.065Z,101342.87
2019-04-10T18:06:53.385Z,101343.88
2019-04-10T18:09:24.858Z,101352.63
2019-04-10T18:11:57.164Z,101354.36
2019-04-10T18:14:29.129Z,101363.57
2019-04-10T18:17:02.430Z,101358.20
2019-04-10T18:19:34.375Z,101364.41
2019-04-10T18:22:06.694Z,101370.13
2019-04-10T18:24:40.072Z,101376.13
2019-04-10T18:27:12.271Z,101375.37
2019-04-10T18:29:43.682Z,101379.31
2019-04-10T18:32:16.009Z,101386.55
2019-04-10T18:34:47.354Z,101387.91
2019-04-10T18:37:22.041Z,101395.95
2019-04-10T18:39:51.578Z,101395.51
2019-04-10T18:42:24.239Z,101399.02
2019-04-10T18:44:55.606Z,101403.11
2019-04-10T18:47:27.117Z,101399.39
2019-04-10T18:49:58.325Z,101405.38
2019-04-10T18:52:29.635Z,101408.75
2019-04-10T18:55:00.804Z,101411.19
2019-04-10T18:57:33.815Z,101410.19
2019-04-10T19:00:24.058Z,101417.48
2019-04-10T19:03:05.476Z,101422.56
2019-04-10T19:05:38.851Z,101420.16
2019-04-10T19:08:12.792Z,101421.70
2019-04-10T19:10:43.381Z,101426.28
2019-04-10T19:13:18.914Z,101423.75
2019-04-10T19:15:51.654Z,101428.36
2019-04-10T19:18:25.832Z,101435.95
2019-04-10T19:20:59.035Z,101438.11
2019-04-10T19:23:30.861Z,101442.36
2019-04-10T19:26:05.511Z,101439.66
2019-04-10T19:28:40.725Z,101441.94
2019-04-10T19:31:18.103Z,101446.81
2019-04-10T19:33:47.453Z,101450.67
2019-04-10T19:36:19.471Z,101449.00
2019-04-10T19:38:51.764Z,101451.33
2019-04-10T19:41:29.604Z,101456.89
2019-04-10T19:43:56.872Z,101451.02
2019-04-10T19:46:29.322Z,101453.47
2019-04-10T19:49:00.697Z,101454.91
2019-04-10T19:51:32.262Z,101458.97
2019-04-10T19:54:05.696Z,101450.78
2019-04-10T19:56:37.004Z,101466.46
2019-04-10T19:59:08.468Z,101459.19
2019-04-10T20:01:39.603Z,101462.03
2019-04-10T20:04:10.951Z,101460.92
2019-04-10T20:06:42.711Z,101467.80
2019-04-10T20:09:15.063Z,101467.31
2019-04-10T20:11:52.415Z,101471.25
2019-04-10T20:14:20.036Z,101469.80
2019-04-10T20:16:51.339Z,101483.38
2019-04-10T20:19:22.610Z,101483.58
2019-04-10T20:21:54.531Z,101482.17
2019-04-10T20:24:27.140Z,101486.11
2019-04-10T20:26:59.410Z,101490.66
2019-04-10T20:29:30.933Z,101490.87
2019-04-10T20:32:02.155Z,101493.36
2019-04-10T20:34:33.705Z,101504.20
2019-04-10T20:37:08.426Z,101504.50
2019-04-10T20:39:39.126Z,101505.59
2019-04-10T20:42:10.538Z,101508.13
2019-04-10T20:44:42.962Z,101507.54
2019-04-10T20:47:15.684Z,101506.73
2019-04-10T20:49:47.913Z,101515.69
2019-04-10T20:52:20.017Z,101515.11
2019-04-10T20:54:51.254Z,101515.98
2019-04-10T20:57:23.571Z,101524.33
2019-04-10T20:59:55.308Z,101525.75
2019-04-10T21:02:26.586Z,101521.30
2019-04-10T21:05:04.968Z,101525.83
2019-04-10T21:07:31.814Z,101525.43
2019-04-10T21:10:04.354Z,101529.66
2019-04-10T21:12:36.407Z,101533.11
2019-04-10T21:15:09.115Z,101530.09
2019-04-10T21:17:40.381Z,101530.78
2019-04-10T21:20:13.513Z,101528.45
2019-04-10T21:22:45.137Z,101532.98
2019-04-10T21:25:17.048Z,101545.61
2019-04-10T21:27:50.399Z,101542.26
2019-04-10T21:30:44.418Z,101547.30
2019-04-10T21:33:40.593Z,101549.60
2019-04-10T21:36:11.975Z,101554.65
2019-04-10T21:38:43.304Z,101558.54
2019-04-10T21:41:15.628Z,101558.34
2019-04-10T21:43:47.511Z,101562.08
2019-04-10T21:46:19.727Z,101569.41
2019-04-10T21:48:51.188Z,101572.03
2019-04-10T21:51:23.231Z,101573.15
2019-04-10T21:53:54.547Z,101581.41
2019-04-10T21:56:26.636Z,101571.20
2019-04-10T21:58:59.035Z,101582.41
2019-04-10T22:01:30.486Z,101585.80
2019-04-10T22:04:03.895Z,101585.98
2019-04-10T22:06:45.520Z,101584.97
2019-04-10T22:09:34.916Z,101588.98
2019-04-10T22:12:26.908Z,101588.25
2019-04-10T22:14:52.594Z,101592.96
2019-04-10T22:17:24.724Z,101596.11
2019-04-10T22:19:55.977Z,101595.30
2019-04-10T22:22:27.253Z,101596.61
2019-04-10T22:24:59.157Z,101596.11
2019-04-10T22:27:31.632Z,101603.53
2019-04-10T22:30:03.051Z,101599.39
2019-04-10T22:32:35.830Z,101603.08
2019-04-10T22:35:07.433Z,101602.38
2019-04-10T22:37:39.906Z,101607.08
2019-04-10T22:40:11.248Z,101608.29
2019-04-10T22:42:46.226Z,101609.59
2019-04-10T22:45:33.622Z,101607.77
2019-04-10T22:48:06.170Z,101617.36
2019-04-10T22:50:38.556Z,101614.10
2019-04-10T22:53:09.790Z,101619.13
2019-04-10T22:55:42.310Z,101616.91
2019-04-10T22:58:13.486Z,101617.30
2019-04-10T23:00:45.971Z,101614.28
2019-04-10T23:03:18.106Z,101617.30
2019-04-10T23:05:49.353Z,101618.70
2019-04-10T23:08:20.504Z,101623.45
2019-04-10T23:10:51.838Z,101621.93
2019-04-10T23:13:23.925Z,101610.50
2019-04-10T23:15:55.667Z,101623.64
2019-04-10T23:18:27.589Z,101623.70
2019-04-10T23:20:58.869Z,101622.67
2019-04-10T23:23:30.769Z,101625.65
2019-04-10T23:26:02.025Z,101632.37
2019-04-10T23:28:34.295Z,101636.19
2019-04-10T23:31:05.700Z,101632.66
2019-04-10T23:33:37.016Z,101641.14
2019-04-10T23:36:08.240Z,101645.29
2019-04-10T23:38:39.657Z,101637.05
2019-04-10T23:41:11.580Z,101644.80
2019-04-10T23:43:44.040Z,101651.09
2019-04-10T23:46:15.197Z,101652.96
2019-04-10T23:48:46.776Z,101646.30
2019-04-10T23:51:18.977Z,101650.02
2019-04-10T23:53:50.964Z,101650.08
2019-04-10T23:56:22.171Z,101654.95
2019-04-10T23:58:54.133Z,101661.28
